sensor_id;sensor_type;location;lat;lon;timestamp;pressure;altitude;pressure_sealevel;temperature;humidity
20023;BME280;10172;42.054;24.546;2023-09-12T00:01:06;98303.41;;;14.81;95.15
20023;BME280;10172;42.054;24.546;2023-09-12T00:03:32;98305.84;;;15.14;93.50
20023;BME280;10172;42.054;24.546;2023-09-12T00:06:00;98291.19;;;15.39;92.57
20023;BME280;10172;42.054;24.546;2023-09-12T00:08:26;98295.41;;;14.70;96.34
20023;BME280;10172;42.054;24.546;2023-09-12T00:11:03;98278.06;;;14.21;99.30
20023;BME280;10172;42.054;24.546;2023-09-12T00:13:29;98309.53;;;15.13;94.44
20023;BME280;10172;42.054;24.546;2023-09-12T00:15:55;98288.50;;;14.88;94.56
20023;BME280;10172;42.054;24.546;2023-09-12T00:18:20;98318.34;;;15.25;92.57
20023;BME280;10172;42.054;24.546;2023-09-12T00:20:46;98276.25;;;15.67;89.06
20023;BME280;10172;42.054;24.546;2023-09-12T00:23:11;98303.94;;;15.16;92.50
20023;BME280;10172;42.054;24.546;2023-09-12T00:25:36;98299.78;;;15.12;91.90
20023;BME280;10172;42.054;24.546;2023-09-12T00:28:02;98316.03;;;15.62;88.82
20023;BME280;10172;42.054;24.546;2023-09-12T00:30:27;98299.91;;;15.52;88.18
20023;BME280;10172;42.054;24.546;2023-09-12T00:32:53;98323.09;;;15.63;88.22
20023;BME280;10172;42.054;24.546;2023-09-12T00:35:18;98316.38;;;15.78;86.66
20023;BME280;10172;42.054;24.546;2023-09-12T00:37:44;98320.03;;;15.77;86.65
20023;BME280;10172;42.054;24.546;2023-09-12T00:40:09;98317.44;;;15.66;87.41
20023;BME280;10172;42.054;24.546;2023-09-12T00:42:35;98319.72;;;14.78;94.09
20023;BME280;10172;42.054;24.546;2023-09-12T00:45:00;98332.03;;;14.26;99.23
20023;BME280;10172;42.054;24.546;2023-09-12T00:47:27;98331.19;;;14.69;97.45
20023;BME280;10172;42.054;24.546;2023-09-12T00:49:56;98322.53;;;14.45;98.94
20023;BME280;10172;42.054;24.546;2023-09-12T00:52:24;98328.97;;;14.31;99.88
20023;BME280;10172;42.054;24.546;2023-09-12T00:54:50;98327.81;;;14.35;100.00
20023;BME280;10172;42.054;24.546;2023-09-12T00:57:16;98317.94;;;14.67;97.13
20023;BME280;10172;42.054;24.546;2023-09-12T00:59:42;98331.78;;;14.72;97.01
20023;BME280;10172;42.054;24.546;2023-09-12T01:02:08;98317.34;;;14.64;97.27
20023;BME280;10172;42.054;24.546;2023-09-12T01:04:35;98326.44;;;14.41;99.14
20023;BME280;10172;42.054;24.546;2023-09-12T01:07:03;98341.03;;;14.36;100.00
20023;BME280;10172;42.054;24.546;2023-09-12T01:09:30;98330.66;;;13.67;100.00
20023;BME280;10172;42.054;24.546;2023-09-12T01:11:56;98317.78;;;13.72;100.00
20023;BME280;10172;42.054;24.546;2023-09-12T01:14:21;98322.75;;;13.88;100.00
20023;BME280;10172;42.054;24.546;2023-09-12T01:16:47;98318.44;;;14.18;100.00
20023;BME280;10172;42.054;24.546;2023-09-12T01:19:13;98314.91;;;14.18;100.00
20023;BME280;10172;42.054;24.546;2023-09-12T01:24:52;98326.28;;;13.55;100.00
20023;BME280;10172;42.054;24.546;2023-09-12T01:27:26;98321.16;;;13.96;100.00
20023;BME280;10172;42.054;24.546;2023-09-12T01:30:04;98329.19;;;13.74;100.00
20023;BME280;10172;42.054;24.546;2023-09-12T01:32:34;98336.47;;;13.94;100.00
20023;BME280;10172;42.054;24.546;2023-09-12T01:35:00;98317.88;;;13.93;100.00
20023;BME280;10172;42.054;24.546;2023-09-12T01:37:29;98318.81;;;14.68;98.97
20023;BME280;10172;42.054;24.546;2023-09-12T01:39:55;98315.28;;;15.29;93.72
20023;BME280;10172;42.054;24.546;2023-09-12T01:42:21;98326.06;;;15.18;93.41
20023;BME280;10172;42.054;24.546;2023-09-12T01:44:50;98329.78;;;14.85;96.01
20023;BME280;10172;42.054;24.546;2023-09-12T01:47:17;98338.31;;;14.79;97.96
20023;BME280;10172;42.054;24.546;2023-09-12T01:49:47;98340.06;;;14.38;100.00
20023;BME280;10172;42.054;24.546;2023-09-12T01:52:14;98316.84;;;14.70;98.42
20023;BME280;10172;42.054;24.546;2023-09-12T01:54:41;98326.94;;;14.66;99.15
20023;BME280;10172;42.054;24.546;2023-09-12T01:57:08;98332.72;;;15.03;96.06
20023;BME280;10172;42.054;24.546;2023-09-12T01:59:33;98312.06;;;14.73;97.00
20023;BME280;10172;42.054;24.546;2023-09-12T02:01:59;98340.56;;;14.20;100.00
20023;BME280;10172;42.054;24.546;2023-09-12T02:04:25;98336.25;;;13.97;100.00
20023;BME280;10172;42.054;24.546;2023-09-12T02:06:50;98319.84;;;14.45;100.00
20023;BME280;10172;42.054;24.546;2023-09-12T02:09:16;98329.31;;;13.95;100.00
20023;BME280;10172;42.054;24.546;2023-09-12T02:11:41;98330.81;;;14.19;100.00
20023;BME280;10172;42.054;24.546;2023-09-12T02:14:06;98307.97;;;14.38;100.00
20023;BME280;10172;42.054;24.546;2023-09-12T02:16:35;98333.47;;;14.30;100.00
20023;BME280;10172;42.054;24.546;2023-09-12T02:19:02;98342.28;;;14.32;100.00
20023;BME280;10172;42.054;24.546;2023-09-12T02:21:27;98327.28;;;14.41;100.00
20023;BME280;10172;42.054;24.546;2023-09-12T02:23:53;98329.13;;;14.72;99.08
20023;BME280;10172;42.054;24.546;2023-09-12T02:26:18;98323.19;;;15.10;96.16
20023;BME280;10172;42.054;24.546;2023-09-12T02:28:45;98352.31;;;14.51;100.00
20023;BME280;10172;42.054;24.546;2023-09-12T02:31:11;98348.34;;;14.34;100.00
20023;BME280;10172;42.054;24.546;2023-09-12T02:33:38;98359.56;;;13.95;100.00
20023;BME280;10172;42.054;24.546;2023-09-12T02:36:04;98349.31;;;14.65;100.00
20023;BME280;10172;42.054;24.546;2023-09-12T02:38:29;98326.09;;;14.34;100.00
20023;BME280;10172;42.054;24.546;2023-09-12T02:40:55;98352.09;;;14.43;100.00
20023;BME280;10172;42.054;24.546;2023-09-12T02:43:21;98338.22;;;14.81;98.49
20023;BME280;10172;42.054;24.546;2023-09-12T02:45:47;98346.56;;;13.79;100.00
20023;BME280;10172;42.054;24.546;2023-09-12T02:48:12;98323.50;;;13.67;100.00
20023;BME280;10172;42.054;24.546;2023-09-12T02:50:37;98349.56;;;13.31;100.00
20023;BME280;10172;42.054;24.546;2023-09-12T02:53:03;98315.47;;;12.88;100.00
20023;BME280;10172;42.054;24.546;2023-09-12T02:55:28;98326.00;;;13.13;100.00
20023;BME280;10172;42.054;24.546;2023-09-12T02:57:54;98346.56;;;13.57;100.00
20023;BME280;10172;42.054;24.546;2023-09-12T03:00:19;98331.84;;;13.52;100.00
20023;BME280;10172;42.054;24.546;2023-09-12T03:02:45;98311.13;;;12.98;100.00
20023;BME280;10172;42.054;24.546;2023-09-12T03:05:11;98332.81;;;13.29;100.00
20023;BME280;10172;42.054;24.546;2023-09-12T03:07:36;98335.50;;;13.40;100.00
20023;BME280;10172;42.054;24.546;2023-09-12T03:10:02;98327.38;;;12.95;100.00
20023;BME280;10172;42.054;24.546;2023-09-12T03:12:27;98338.00;;;12.73;100.00
20023;BME280;10172;42.054;24.546;2023-09-12T03:14:52;98316.66;;;12.73;100.00
20023;BME280;10172;42.054;24.546;2023-09-12T03:17:18;98349.56;;;13.31;100.00
20023;BME280;10172;42.054;24.546;2023-09-12T03:19:43;98327.63;;;13.03;100.00
20023;BME280;10172;42.054;24.546;2023-09-12T03:22:09;98347.31;;;13.48;100.00
20023;BME280;10172;42.054;24.546;2023-09-12T03:24:34;98348.41;;;13.46;100.00
20023;BME280;10172;42.054;24.546;2023-09-12T03:27:00;98345.72;;;13.46;100.00
20023;BME280;10172;42.054;24.546;2023-09-12T03:29:25;98356.16;;;13.71;100.00
20023;BME280;10172;42.054;24.546;2023-09-12T03:31:51;98346.78;;;13.21;100.00
20023;BME280;10172;42.054;24.546;2023-09-12T03:34:16;98352.94;;;13.10;100.00
20023;BME280;10172;42.054;24.546;2023-09-12T03:36:41;98334.19;;;12.99;100.00
20023;BME280;10172;42.054;24.546;2023-09-12T03:39:07;98337.16;;;13.07;100.00
20023;BME280;10172;42.054;24.546;2023-09-12T03:41:34;98358.94;;;13.36;100.00
20023;BME280;10172;42.054;24.546;2023-09-12T03:44:00;98354.94;;;12.96;100.00
20023;BME280;10172;42.054;24.546;2023-09-12T03:46:25;98356.41;;;13.00;100.00
20023;BME280;10172;42.054;24.546;2023-09-12T03:48:51;98367.16;;;12.87;100.00
20023;BME280;10172;42.054;24.546;2023-09-12T03:51:16;98345.44;;;12.81;100.00
20023;BME280;10172;42.054;24.546;2023-09-12T03:53:42;98354.34;;;13.03;100.00
20023;BME280;10172;42.054;24.546;2023-09-12T03:56:07;98343.78;;;13.59;100.00
20023;BME280;10172;42.054;24.546;2023-09-12T03:58:35;98347.88;;;13.52;100.00
20023;BME280;10172;42.054;24.546;2023-09-12T04:01:00;98353.63;;;13.58;100.00
20023;BME280;10172;42.054;24.546;2023-09-12T04:03:26;98333.91;;;13.93;100.00
20023;BME280;10172;42.054;24.546;2023-09-12T04:05:51;98364.16;;;14.38;100.00
20023;BME280;10172;42.054;24.546;2023-09-12T04:08:17;98341.84;;;13.04;100.00
20023;BME280;10172;42.054;24.546;2023-09-12T04:10:43;98366.84;;;13.38;100.00
20023;BME280;10172;42.054;24.546;2023-09-12T04:13:08;98353.72;;;13.35;100.00
20023;BME280;10172;42.054;24.546;2023-09-12T04:15:34;98338.03;;;13.19;100.00
20023;BME280;10172;42.054;24.546;2023-09-12T04:17:59;98345.72;;;13.35;100.00
20023;BME280;10172;42.054;24.546;2023-09-12T04:20:25;98351.53;;;13.29;100.00
20023;BME280;10172;42.054;24.546;2023-09-12T04:22:50;98348.16;;;13.49;100.00
20023;BME280;10172;42.054;24.546;2023-09-12T04:25:16;98369.38;;;13.28;100.00
20023;BME280;10172;42.054;24.546;2023-09-12T04:27:42;98367.59;;;13.51;100.00
20023;BME280;10172;42.054;24.546;2023-09-12T04:30:08;98370.25;;;13.95;100.00
20023;BME280;10172;42.054;24.546;2023-09-12T04:32:33;98370.53;;;13.92;100.00
20023;BME280;10172;42.054;24.546;2023-09-12T04:35:00;98371.69;;;13.44;100.00
20023;BME280;10172;42.054;24.546;2023-09-12T04:37:25;98369.88;;;13.44;100.00
20023;BME280;10172;42.054;24.546;2023-09-12T04:39:50;98370.75;;;13.56;100.00
20023;BME280;10172;42.054;24.546;2023-09-12T04:42:16;98354.00;;;13.54;100.00
20023;BME280;10172;42.054;24.546;2023-09-12T04:44:42;98371.84;;;13.53;100.00
20023;BME280;10172;42.054;24.546;2023-09-12T04:47:08;98349.13;;;13.92;100.00
20023;BME280;10172;42.054;24.546;2023-09-12T04:49:33;98370.13;;;14.08;100.00
20023;BME280;10172;42.054;24.546;2023-09-12T04:51:59;98348.00;;;13.39;100.00
20023;BME280;10172;42.054;24.546;2023-09-12T04:54:24;98362.97;;;14.08;100.00
20023;BME280;10172;42.054;24.546;2023-09-12T04:56:50;98378.03;;;14.09;100.00
20023;BME280;10172;42.054;24.546;2023-09-12T04:59:15;98355.28;;;14.37;100.00
20023;BME280;10172;42.054;24.546;2023-09-12T05:01:41;98376.81;;;14.13;100.00
20023;BME280;10172;42.054;24.546;2023-09-12T05:04:06;98364.91;;;14.06;100.00
20023;BME280;10172;42.054;24.546;2023-09-12T05:06:32;98370.13;;;14.73;100.00
20023;BME280;10172;42.054;24.546;2023-09-12T05:08:57;98358.56;;;14.41;100.00
20023;BME280;10172;42.054;24.546;2023-09-12T05:11:23;98374.94;;;14.47;100.00
20023;BME280;10172;42.054;24.546;2023-09-12T05:13:49;98371.63;;;15.18;100.00
20023;BME280;10172;42.054;24.546;2023-09-12T05:16:15;98372.50;;;14.87;100.00
20023;BME280;10172;42.054;24.546;2023-09-12T05:18:40;98363.31;;;15.21;100.00
20023;BME280;10172;42.054;24.546;2023-09-12T05:21:05;98360.09;;;14.86;100.00
20023;BME280;10172;42.054;24.546;2023-09-12T05:23:31;98369.19;;;14.94;100.00
20023;BME280;10172;42.054;24.546;2023-09-12T05:25:56;98374.63;;;15.45;100.00
20023;BME280;10172;42.054;24.546;2023-09-12T05:28:22;98358.94;;;15.62;100.00
20023;BME280;10172;42.054;24.546;2023-09-12T05:30:47;98378.34;;;16.05;99.61
20023;BME280;10172;42.054;24.546;2023-09-12T05:33:13;98355.59;;;15.99;97.21
20023;BME280;10172;42.054;24.546;2023-09-12T05:35:38;98353.59;;;15.92;97.29
20023;BME280;10172;42.054;24.546;2023-09-12T05:38:04;98384.28;;;16.58;94.46
20023;BME280;10172;42.054;24.546;2023-09-12T05:40:29;98356.03;;;17.21;91.73
20023;BME280;10172;42.054;24.546;2023-09-12T05:42:55;98353.78;;;17.16;88.08
20023;BME280;10172;42.054;24.546;2023-09-12T05:45:20;98373.94;;;17.49;89.54
20023;BME280;10172;42.054;24.546;2023-09-12T05:47:46;98379.53;;;17.94;86.50
20023;BME280;10172;42.054;24.546;2023-09-12T05:50:11;98358.16;;;18.20;84.52
20023;BME280;10172;42.054;24.546;2023-09-12T05:52:37;98376.91;;;18.66;82.98
20023;BME280;10172;42.054;24.546;2023-09-12T05:55:03;98382.09;;;18.77;81.64
20023;BME280;10172;42.054;24.546;2023-09-12T05:57:29;98380.16;;;18.87;78.72
20023;BME280;10172;42.054;24.546;2023-09-12T05:59:58;98372.03;;;19.58;75.41
20023;BME280;10172;42.054;24.546;2023-09-12T06:02:25;98369.03;;;19.61;75.36
20023;BME280;10172;42.054;24.546;2023-09-12T06:04:50;98372.84;;;19.76;72.37
20023;BME280;10172;42.054;24.546;2023-09-12T06:07:16;98361.28;;;19.66;70.04
20023;BME280;10172;42.054;24.546;2023-09-12T06:09:41;98367.09;;;19.79;68.10
20023;BME280;10172;42.054;24.546;2023-09-12T06:12:07;98365.59;;;20.10;67.12
20023;BME280;10172;42.054;24.546;2023-09-12T06:14:32;98358.78;;;20.24;65.04
20023;BME280;10172;42.054;24.546;2023-09-12T06:16:58;98366.41;;;20.37;63.11
20023;BME280;10172;42.054;24.546;2023-09-12T06:19:24;98380.09;;;20.35;64.06
20023;BME280;10172;42.054;24.546;2023-09-12T06:21:49;98378.34;;;20.60;62.45
20023;BME280;10172;42.054;24.546;2023-09-12T06:24:24;98377.31;;;20.61;61.13
20023;BME280;10172;42.054;24.546;2023-09-12T06:26:49;98389.84;;;20.70;61.75
20023;BME280;10172;42.054;24.546;2023-09-12T06:29:15;98385.78;;;20.66;62.15
20023;BME280;10172;42.054;24.546;2023-09-12T06:31:41;98379.16;;;20.18;62.62
20023;BME280;10172;42.054;24.546;2023-09-12T06:34:07;98369.91;;;20.71;61.33
20023;BME280;10172;42.054;24.546;2023-09-12T06:36:33;98380.44;;;21.06;58.82
20023;BME280;10172;42.054;24.546;2023-09-12T06:38:59;98377.91;;;20.97;59.06
20023;BME280;10172;42.054;24.546;2023-09-12T06:41:26;98379.09;;;21.02;57.99
20023;BME280;10172;42.054;24.546;2023-09-12T06:43:51;98371.56;;;21.30;57.10
20023;BME280;10172;42.054;24.546;2023-09-12T06:46:17;98392.47;;;21.84;54.61
20023;BME280;10172;42.054;24.546;2023-09-12T06:48:44;98393.19;;;22.41;54.93
20023;BME280;10172;42.054;24.546;2023-09-12T06:51:10;98400.88;;;22.60;52.68
20023;BME280;10172;42.054;24.546;2023-09-12T06:53:36;98393.44;;;22.62;52.95
20023;BME280;10172;42.054;24.546;2023-09-12T06:56:07;98365.94;;;21.88;54.30
20023;BME280;10172;42.054;24.546;2023-09-12T06:58:32;98390.13;;;22.44;54.47
20023;BME280;10172;42.054;24.546;2023-09-12T07:01:02;98394.66;;;22.60;53.00
20023;BME280;10172;42.054;24.546;2023-09-12T07:03:28;98398.09;;;22.85;53.41
20023;BME280;10172;42.054;24.546;2023-09-12T07:05:53;98382.84;;;23.06;52.17
20023;BME280;10172;42.054;24.546;2023-09-12T07:08:19;98392.41;;;23.02;51.58
20023;BME280;10172;42.054;24.546;2023-09-12T07:10:45;98401.75;;;23.00;52.08
20023;BME280;10172;42.054;24.546;2023-09-12T07:13:11;98392.81;;;23.37;51.03
20023;BME280;10172;42.054;24.546;2023-09-12T07:15:36;98368.69;;;23.64;50.70
20023;BME280;10172;42.054;24.546;2023-09-12T07:18:02;98374.69;;;23.74;48.89
20023;BME280;10172;42.054;24.546;2023-09-12T07:20:27;98394.28;;;24.22;47.01
20023;BME280;10172;42.054;24.546;2023-09-12T07:22:53;98389.22;;;24.19;47.55
20023;BME280;10172;42.054;24.546;2023-09-12T07:25:18;98383.28;;;24.59;47.53
20023;BME280;10172;42.054;24.546;2023-09-12T07:27:46;98373.75;;;24.49;45.39
20023;BME280;10172;42.054;24.546;2023-09-12T07:30:11;98392.41;;;24.37;44.89
20023;BME280;10172;42.054;24.546;2023-09-12T07:32:37;98370.44;;;24.38;44.65
20023;BME280;10172;42.054;24.546;2023-09-12T07:35:02;98383.28;;;24.59;44.82
20023;BME280;10172;42.054;24.546;2023-09-12T07:37:28;98392.22;;;25.04;44.37
20023;BME280;10172;42.054;24.546;2023-09-12T07:39:53;98390.69;;;25.37;43.88
20023;BME280;10172;42.054;24.546;2023-09-12T07:42:23;98375.00;;;25.18;43.71
20023;BME280;10172;42.054;24.546;2023-09-12T07:44:48;98374.59;;;25.00;44.06
20023;BME280;10172;42.054;24.546;2023-09-12T07:47:14;98382.38;;;25.66;42.17
20023;BME280;10172;42.054;24.546;2023-09-12T07:49:39;98366.94;;;25.10;43.81
20023;BME280;10172;42.054;24.546;2023-09-12T07:52:05;98385.25;;;25.16;43.35
20023;BME280;10172;42.054;24.546;2023-09-12T07:54:31;98377.66;;;25.32;44.35
20023;BME280;10172;42.054;24.546;2023-09-12T07:56:56;98376.09;;;25.23;43.53
20023;BME280;10172;42.054;24.546;2023-09-12T07:59:22;98363.75;;;24.85;43.50
20023;BME280;10172;42.054;24.546;2023-09-12T08:01:47;98380.75;;;25.08;43.94
20023;BME280;10172;42.054;24.546;2023-09-12T08:04:13;98353.34;;;25.31;45.08
20023;BME280;10172;42.054;24.546;2023-09-12T08:06:40;98378.53;;;25.54;45.34
20023;BME280;10172;42.054;24.546;2023-09-12T08:09:06;98379.00;;;25.85;44.95
20023;BME280;10172;42.054;24.546;2023-09-12T08:11:32;98352.94;;;25.34;44.29
20023;BME280;10172;42.054;24.546;2023-09-12T08:13:57;98352.59;;;25.86;44.59
20023;BME280;10172;42.054;24.546;2023-09-12T08:16:23;98379.75;;;26.00;43.55
20023;BME280;10172;42.054;24.546;2023-09-12T08:18:48;98371.06;;;25.90;44.42
20023;BME280;10172;42.054;24.546;2023-09-12T08:21:14;98352.59;;;25.86;44.82
20023;BME280;10172;42.054;24.546;2023-09-12T08:23:39;98353.59;;;24.43;48.68
20023;BME280;10172;42.054;24.546;2023-09-12T08:26:05;98359.88;;;24.44;48.57
20023;BME280;10172;42.054;24.546;2023-09-12T08:28:30;98375.75;;;25.12;48.25
20023;BME280;10172;42.054;24.546;2023-09-12T08:30:55;98362.72;;;25.98;45.48
20023;BME280;10172;42.054;24.546;2023-09-12T08:33:21;98348.00;;;26.61;45.02
20023;BME280;10172;42.054;24.546;2023-09-12T08:35:48;98368.47;;;26.79;43.89
20023;BME280;10172;42.054;24.546;2023-09-12T08:38:14;98341.94;;;26.66;44.05
20023;BME280;10172;42.054;24.546;2023-09-12T08:40:40;98360.13;;;26.93;43.26
20023;BME280;10172;42.054;24.546;2023-09-12T08:43:05;98359.91;;;26.88;43.21
20023;BME280;10172;42.054;24.546;2023-09-12T08:45:31;98351.88;;;26.33;44.29
20023;BME280;10172;42.054;24.546;2023-09-12T08:47:59;98355.31;;;26.13;46.02
20023;BME280;10172;42.054;24.546;2023-09-12T08:50:26;98357.97;;;26.35;45.18
20023;BME280;10172;42.054;24.546;2023-09-12T08:52:56;98355.19;;;26.28;45.32
20023;BME280;10172;42.054;24.546;2023-09-12T08:55:21;98347.47;;;26.04;45.41
20023;BME280;10172;42.054;24.546;2023-09-12T08:57:50;98346.34;;;26.67;45.37
20023;BME280;10172;42.054;24.546;2023-09-12T09:00:16;98343.63;;;26.67;45.13
20023;BME280;10172;42.054;24.546;2023-09-12T09:02:43;98363.59;;;26.74;44.93
20023;BME280;10172;42.054;24.546;2023-09-12T09:05:11;98361.69;;;27.35;43.22
20023;BME280;10172;42.054;24.546;2023-09-12T09:07:41;98350.38;;;27.51;43.59
20023;BME280;10172;42.054;24.546;2023-09-12T09:10:15;98351.59;;;28.27;42.92
20023;BME280;10172;42.054;24.546;2023-09-12T09:12:44;98347.41;;;27.99;42.59
20023;BME280;10172;42.054;24.546;2023-09-12T09:15:21;98344.94;;;27.71;42.57
20023;BME280;10172;42.054;24.546;2023-09-12T09:17:47;98352.03;;;27.33;44.92
20023;BME280;10172;42.054;24.546;2023-09-12T09:20:27;98348.84;;;27.29;44.12
20023;BME280;10172;42.054;24.546;2023-09-12T09:23:03;98310.47;;;27.76;43.51
20023;BME280;10172;42.054;24.546;2023-09-12T09:25:34;98326.34;;;28.25;41.79
20023;BME280;10172;42.054;24.546;2023-09-12T09:28:04;98340.66;;;28.27;41.15
20023;BME280;10172;42.054;24.546;2023-09-12T09:30:43;98336.84;;;28.28;41.54
20023;BME280;10172;42.054;24.546;2023-09-12T09:33:10;98334.06;;;28.55;41.86
20023;BME280;10172;42.054;24.546;2023-09-12T09:35:36;98326.44;;;28.70;40.95
20023;BME280;10172;42.054;24.546;2023-09-12T09:38:05;98328.66;;;28.86;42.04
20023;BME280;10172;42.054;24.546;2023-09-12T09:40:32;98319.47;;;28.61;42.99
20023;BME280;10172;42.054;24.546;2023-09-12T09:43:02;98329.34;;;29.13;41.56
20023;BME280;10172;42.054;24.546;2023-09-12T09:45:29;98327.47;;;28.69;41.80
20023;BME280;10172;42.054;24.546;2023-09-12T09:47:58;98320.16;;;28.63;41.53
20023;BME280;10172;42.054;24.546;2023-09-12T09:50:29;98310.75;;;28.90;40.05
20023;BME280;10172;42.054;24.546;2023-09-12T09:52:54;98323.50;;;29.40;38.41
20023;BME280;10172;42.054;24.546;2023-09-12T09:55:21;98302.00;;;28.62;38.31
20023;BME280;10172;42.054;24.546;2023-09-12T09:57:47;98318.59;;;28.22;39.87
20023;BME280;10172;42.054;24.546;2023-09-12T10:00:13;98305.84;;;28.98;38.93
20023;BME280;10172;42.054;24.546;2023-09-12T10:02:40;98321.22;;;29.31;39.04
20023;BME280;10172;42.054;24.546;2023-09-12T10:05:08;98327.00;;;29.16;36.89
20023;BME280;10172;42.054;24.546;2023-09-12T10:07:37;98309.63;;;29.35;36.39
20023;BME280;10172;42.054;24.546;2023-09-12T10:10:03;98319.94;;;29.02;35.88
20023;BME280;10172;42.054;24.546;2023-09-12T10:12:35;98325.25;;;29.28;35.25
20023;BME280;10172;42.054;24.546;2023-09-12T10:15:01;98317.16;;;28.71;36.51
20023;BME280;10172;42.054;24.546;2023-09-12T10:17:36;98290.69;;;28.52;36.70
20023;BME280;10172;42.054;24.546;2023-09-12T10:20:03;98301.00;;;29.00;36.78
20023;BME280;10172;42.054;24.546;2023-09-12T10:25:20;98281.56;;;29.64;35.96
20023;BME280;10172;42.054;24.546;2023-09-12T10:27:48;98302.91;;;30.05;36.48
20023;BME280;10172;42.054;24.546;2023-09-12T10:30:14;98290.34;;;29.98;36.79
20023;BME280;10172;42.054;24.546;2023-09-12T10:32:41;98293.25;;;30.39;37.42
20023;BME280;10172;42.054;24.546;2023-09-12T10:35:10;98295.16;;;30.57;35.78
20023;BME280;10172;42.054;24.546;2023-09-12T10:37:37;98300.28;;;30.83;36.11
20023;BME280;10172;42.054;24.546;2023-09-12T10:40:08;98290.63;;;30.08;36.36
20023;BME280;10172;42.054;24.546;2023-09-12T10:42:34;98283.25;;;28.72;38.96
20023;BME280;10172;42.054;24.546;2023-09-12T10:45:00;98271.22;;;28.28;40.51
20023;BME280;10172;42.054;24.546;2023-09-12T10:47:26;98279.78;;;27.48;43.40
20023;BME280;10172;42.054;24.546;2023-09-12T10:49:52;98269.69;;;28.39;41.28
20023;BME280;10172;42.054;24.546;2023-09-12T10:52:25;98256.28;;;29.06;39.90
20023;BME280;10172;42.054;24.546;2023-09-12T10:54:51;98257.88;;;29.95;38.60
20023;BME280;10172;42.054;24.546;2023-09-12T10:57:17;98256.50;;;30.22;37.38
20023;BME280;10172;42.054;24.546;2023-09-12T11:02:46;98250.06;;;29.24;40.72
20023;BME280;10172;42.054;24.546;2023-09-12T11:07:56;98245.19;;;29.76;40.45
20023;BME280;10172;42.054;24.546;2023-09-12T11:10:23;98214.38;;;29.55;40.90
20023;BME280;10172;42.054;24.546;2023-09-12T11:12:54;98231.34;;;29.89;40.72
20023;BME280;10172;42.054;24.546;2023-09-12T11:15:24;98222.97;;;30.02;40.48
20023;BME280;10172;42.054;24.546;2023-09-12T11:18:03;98219.91;;;30.10;40.42
20023;BME280;10172;42.054;24.546;2023-09-12T11:20:59;98218.66;;;30.60;39.31
20023;BME280;10172;42.054;24.546;2023-09-12T11:23:24;98192.56;;;30.40;39.22
20023;BME280;10172;42.054;24.546;2023-09-12T11:26:11;98213.94;;;31.09;38.43
20023;BME280;10172;42.054;24.546;2023-09-12T11:28:38;98210.84;;;31.05;38.20
20023;BME280;10172;42.054;24.546;2023-09-12T11:31:05;98212.16;;;31.03;37.83
20023;BME280;10172;42.054;24.546;2023-09-12T11:33:31;98211.53;;;31.01;38.75
20023;BME280;10172;42.054;24.546;2023-09-12T11:35:57;98218.13;;;31.11;38.39
20023;BME280;10172;42.054;24.546;2023-09-12T11:38:30;98217.38;;;30.74;39.62
20023;BME280;10172;42.054;24.546;2023-09-12T11:40:57;98201.16;;;31.03;39.31
20023;BME280;10172;42.054;24.546;2023-09-12T11:43:25;98197.13;;;31.40;37.91
20023;BME280;10172;42.054;24.546;2023-09-12T11:45:52;98197.81;;;31.01;37.98
20023;BME280;10172;42.054;24.546;2023-09-12T11:48:18;98195.75;;;30.96;38.88
20023;BME280;10172;42.054;24.546;2023-09-12T11:50:53;98166.41;;;31.20;38.23
20023;BME280;10172;42.054;24.546;2023-09-12T11:53:24;98186.25;;;31.33;37.59
20023;BME280;10172;42.054;24.546;2023-09-12T11:55:52;98169.03;;;31.15;38.44
20023;BME280;10172;42.054;24.546;2023-09-12T11:58:19;98183.25;;;31.23;38.55
20023;BME280;10172;42.054;24.546;2023-09-12T12:00:46;98173.81;;;31.31;38.43
20023;BME280;10172;42.054;24.546;2023-09-12T12:03:13;98168.31;;;31.31;37.38
20023;BME280;10172;42.054;24.546;2023-09-12T12:05:39;98174.66;;;31.43;37.59
20023;BME280;10172;42.054;24.546;2023-09-12T12:08:07;98150.03;;;31.02;38.28
20023;BME280;10172;42.054;24.546;2023-09-12T12:10:34;98166.03;;;31.28;36.95
20023;BME280;10172;42.054;24.546;2023-09-12T12:12:59;98165.69;;;31.24;36.61
20023;BME280;10172;42.054;24.546;2023-09-12T12:15:27;98159.84;;;31.44;36.66
20023;BME280;10172;42.054;24.546;2023-09-12T12:17:56;98160.56;;;31.74;35.81
20023;BME280;10172;42.054;24.546;2023-09-12T12:20:22;98157.59;;;31.41;35.69
20023;BME280;10172;42.054;24.546;2023-09-12T12:22:48;98151.16;;;31.98;34.52
20023;BME280;10172;42.054;24.546;2023-09-12T12:25:14;98159.44;;;32.10;33.90
20023;BME280;10172;42.054;24.546;2023-09-12T12:27:41;98156.88;;;31.57;33.84
20023;BME280;10172;42.054;24.546;2023-09-12T12:30:08;98152.47;;;31.56;33.74
20023;BME280;10172;42.054;24.546;2023-09-12T12:32:36;98154.34;;;31.67;33.71
20023;BME280;10172;42.054;24.546;2023-09-12T12:35:05;98147.44;;;31.53;33.17
20023;BME280;10172;42.054;24.546;2023-09-12T12:37:32;98151.28;;;31.52;33.96
20023;BME280;10172;42.054;24.546;2023-09-12T12:39:59;98148.09;;;31.83;34.40
20023;BME280;10172;42.054;24.546;2023-09-12T12:42:32;98135.09;;;31.79;33.52
20023;BME280;10172;42.054;24.546;2023-09-12T12:44:57;98147.72;;;31.91;32.76
20023;BME280;10172;42.054;24.546;2023-09-12T12:47:23;98151.72;;;31.72;32.06
20023;BME280;10172;42.054;24.546;2023-09-12T12:49:52;98136.47;;;31.93;32.10
20023;BME280;10172;42.054;24.546;2023-09-12T12:52:24;98134.84;;;32.04;32.14
20023;BME280;10172;42.054;24.546;2023-09-12T12:54:51;98140.31;;;32.32;32.19
20023;BME280;10172;42.054;24.546;2023-09-12T12:57:20;98145.84;;;32.32;31.14